createdAt,value
2024-03-13T00:00:59.615Z,153.20
2024-03-13T00:01:59.784Z,155.77
2024-03-13T00:03:00.030Z,155.46
2024-03-13T00:04:00.025Z,153.55
2024-03-13T00:05:00.085Z,153.90
2024-03-13T00:06:00.260Z,154.08
2024-03-13T00:07:00.378Z,150.79
2024-03-13T00:08:00.464Z,150.93
2024-03-13T00:09:00.612Z,148.79
2024-03-13T00:10:00.793Z,149.61
2024-03-13T00:11:01.031Z,149.07
2024-03-13T00:12:01.017Z,151.06
2024-03-13T00:13:01.184Z,156.41
2024-03-13T00:14:01.285Z,165.64
2024-03-13T00:15:01.434Z,169.92
2024-03-13T00:16:01.659Z,173.00
2024-03-13T00:17:01.698Z,180.19
2024-03-13T00:18:01.938Z,182.69
2024-03-13T00:19:02.097Z,184.07
2024-03-13T00:20:02.304Z,182.02
2024-03-13T00:21:02.406Z,179.03
2024-03-13T00:22:02.604Z,174.22
2024-03-13T00:23:02.738Z,171.03
2024-03-13T00:24:02.921Z,168.20
2024-03-13T00:25:03.088Z,169.79
2024-03-13T00:26:03.218Z,170.90
2024-03-13T00:27:03.371Z,174.63
2024-03-13T00:28:03.632Z,177.34
2024-03-13T00:29:03.735Z,179.02
2024-03-13T00:30:03.954Z,185.19
2024-03-13T00:31:04.090Z,189.46
2024-03-13T00:32:04.227Z,191.17
2024-03-13T00:33:04.442Z,187.96
2024-03-13T00:34:04.563Z,189.50
2024-03-13T00:35:04.727Z,189.53
2024-03-13T00:36:04.856Z,185.71
2024-03-13T00:37:05.110Z,181.23
2024-03-13T00:38:05.335Z,178.86
2024-03-13T00:39:05.350Z,173.99
2024-03-13T00:40:05.603Z,172.63
2024-03-13T00:41:05.670Z,171.48
2024-03-13T00:42:05.802Z,168.77
2024-03-13T00:43:05.905Z,166.92
2024-03-13T00:44:05.991Z,164.00
2024-03-13T00:45:06.059Z,163.34
2024-03-13T00:46:06.252Z,162.98
2024-03-13T00:47:06.336Z,162.04
2024-03-13T00:48:06.371Z,160.43
2024-03-13T00:49:06.488Z,160.89
2024-03-13T00:50:06.566Z,160.72
2024-03-13T00:51:06.680Z,161.76
2024-03-13T00:52:06.890Z,159.21
2024-03-13T00:53:06.875Z,159.61
2024-03-13T00:54:06.983Z,157.40
2024-03-13T00:55:07.118Z,156.61
2024-03-13T00:56:07.198Z,156.58
2024-03-13T00:57:07.374Z,153.95
2024-03-13T00:58:07.467Z,150.38
2024-03-13T00:59:07.490Z,145.82
2024-03-13T01:00:07.599Z,145.27
2024-03-13T01:01:07.713Z,142.89
2024-03-13T01:02:07.817Z,138.57
2024-03-13T01:03:10.151Z,137.54
2024-03-13T01:04:07.993Z,137.56
2024-03-13T01:05:08.140Z,133.70
2024-03-13T01:06:08.216Z,134.85
2024-03-13T01:07:08.652Z,132.29
2024-03-13T01:08:08.375Z,134.46
2024-03-13T01:09:08.466Z,132.08
2024-03-13T01:10:08.641Z,133.82
2024-03-13T01:11:08.698Z,131.20
2024-03-13T01:12:08.773Z,131.36
2024-03-13T01:13:08.932Z,131.55
2024-03-13T01:14:09.012Z,131.79
2024-03-13T01:15:09.122Z,128.72
2024-03-13T01:16:09.169Z,129.38
2024-03-13T01:17:09.246Z,127.27
2024-03-13T01:18:09.395Z,127.10
2024-03-13T01:19:09.653Z,130.49
2024-03-13T01:20:09.610Z,132.52
2024-03-13T01:21:09.617Z,135.36
2024-03-13T01:22:09.770Z,139.66
2024-03-13T01:23:09.847Z,138.41
2024-03-13T01:24:09.986Z,139.50
2024-03-13T01:25:10.045Z,134.14
2024-03-13T01:26:10.097Z,133.56
2024-03-13T01:27:10.227Z,130.47
2024-03-13T01:28:10.502Z,127.33
2024-03-13T01:29:10.406Z,126.90
2024-03-13T01:30:10.504Z,127.71
2024-03-13T01:31:10.667Z,125.51
2024-03-13T01:32:10.703Z,125.95
2024-03-13T01:33:10.808Z,127.44
2024-03-13T01:34:10.890Z,127.99
2024-03-13T01:35:10.991Z,129.40
2024-03-13T01:36:11.085Z,128.69
2024-03-13T01:37:11.262Z,130.06
2024-03-13T01:38:11.397Z,130.82
2024-03-13T01:39:11.592Z,133.43
2024-03-13T01:40:11.783Z,134.04
2024-03-13T01:41:11.791Z,134.49
2024-03-13T01:42:11.951Z,135.61
2024-03-13T01:43:12.061Z,134.93
2024-03-13T01:44:12.165Z,134.25
2024-03-13T01:45:12.306Z,135.18
2024-03-13T01:46:12.534Z,136.64
2024-03-13T01:47:12.603Z,140.32
2024-03-13T01:48:12.713Z,140.95
2024-03-13T01:49:12.865Z,144.05
2024-03-13T01:50:12.992Z,145.20
2024-03-13T01:51:13.088Z,142.82
2024-03-13T01:52:13.311Z,145.80
2024-03-13T01:53:13.370Z,144.43
2024-03-13T01:54:13.555Z,154.21
2024-03-13T01:55:13.700Z,160.65
2024-03-13T01:56:13.832Z,161.61
2024-03-13T01:57:14.020Z,166.74
2024-03-13T01:58:14.191Z,170.92
2024-03-13T01:59:14.338Z,176.67
2024-03-13T02:00:14.473Z,182.25
2024-03-13T02:01:14.765Z,190.96
2024-03-13T02:02:14.755Z,200.00
2024-03-13T02:03:14.833Z,200.00
2024-03-13T02:04:14.885Z,200.22
2024-03-13T02:05:15.072Z,200.00
2024-03-13T02:06:15.138Z,199.15
2024-03-13T02:07:15.316Z,199.41
2024-03-13T02:08:15.453Z,198.17
2024-03-13T02:09:15.548Z,199.98
2024-03-13T02:10:15.802Z,200.00
2024-03-13T02:11:15.892Z,200.00
2024-03-13T02:12:15.986Z,199.57
2024-03-13T02:13:16.206Z,198.80
2024-03-13T02:14:16.322Z,198.96
2024-03-13T02:15:16.516Z,197.41
2024-03-13T02:16:16.731Z,198.87
2024-03-13T02:17:16.795Z,199.04
2024-03-13T02:18:17.018Z,197.54
2024-03-13T02:19:17.155Z,195.74
2024-03-13T02:20:17.277Z,196.72
2024-03-13T02:21:17.455Z,194.76
2024-03-13T02:22:17.689Z,190.85
2024-03-13T02:23:17.765Z,190.14
2024-03-13T02:24:17.900Z,188.83
2024-03-13T02:25:18.127Z,186.00
2024-03-13T02:26:18.290Z,182.35
2024-03-13T02:27:18.340Z,180.11
2024-03-13T02:28:18.479Z,179.10
2024-03-13T02:29:18.528Z,178.29
2024-03-13T02:30:18.712Z,176.20
2024-03-13T02:31:18.878Z,177.04
2024-03-13T02:32:18.857Z,177.09
2024-03-13T02:33:19.044Z,176.05
2024-03-13T02:34:19.240Z,174.49
2024-03-13T02:35:19.373Z,174.70
2024-03-13T02:36:19.594Z,174.59
2024-03-13T02:37:19.794Z,172.55
2024-03-13T02:38:19.929Z,171.07
2024-03-13T02:39:20.233Z,169.56
2024-03-13T02:40:20.205Z,168.53
2024-03-13T02:41:20.370Z,168.81
2024-03-13T02:42:20.363Z,166.44
2024-03-13T02:43:20.677Z,167.01
2024-03-13T02:44:20.573Z,169.20
2024-03-13T02:45:20.704Z,169.16
2024-03-13T02:46:20.853Z,170.32
2024-03-13T02:47:20.899Z,172.59
2024-03-13T02:48:21.017Z,174.14
2024-03-13T02:49:21.194Z,178.02
2024-03-13T02:50:21.236Z,177.59
2024-03-13T02:51:21.337Z,179.86
2024-03-13T02:52:21.498Z,178.52
2024-03-13T02:53:21.575Z,176.02
2024-03-13T02:54:21.667Z,176.12
2024-03-13T02:55:21.863Z,174.33
2024-03-13T02:56:21.881Z,174.37
2024-03-13T02:57:21.982Z,172.13
2024-03-13T02:58:22.244Z,169.29
2024-03-13T02:59:22.206Z,168.48
2024-03-13T03:00:22.325Z,170.78
2024-03-13T03:01:22.536Z,173.80
2024-03-13T03:02:22.690Z,176.87
2024-03-13T03:03:22.717Z,180.44
2024-03-13T03:04:22.898Z,182.91
2024-03-13T03:05:22.993Z,185.90
2024-03-13T03:06:23.084Z,187.33
2024-03-13T03:07:23.347Z,187.69
2024-03-13T03:08:23.304Z,187.18
2024-03-13T03:09:23.510Z,189.36
2024-03-13T03:10:23.723Z,186.70
2024-03-13T03:11:23.740Z,187.88
2024-03-13T03:12:23.922Z,186.24
2024-03-13T03:13:24.103Z,185.86
2024-03-13T03:14:24.200Z,185.67
2024-03-13T03:15:24.383Z,187.14
2024-03-13T03:16:24.570Z,188.70
2024-03-13T03:17:24.735Z,190.99
2024-03-13T03:18:24.863Z,191.27
2024-03-13T03:19:25.107Z,190.27
2024-03-13T03:20:25.118Z,189.82
2024-03-13T03:21:25.221Z,190.54
2024-03-13T03:22:25.439Z,190.17
2024-03-13T03:23:25.449Z,191.76
2024-03-13T03:24:25.580Z,192.00
2024-03-13T03:25:26.158Z,191.37
2024-03-13T03:26:25.878Z,190.83
2024-03-13T03:27:25.953Z,190.37
2024-03-13T03:28:26.118Z,193.28
2024-03-13T03:29:26.146Z,194.51
2024-03-13T03:30:26.357Z,192.63
2024-03-13T03:31:26.520Z,193.89
2024-03-13T03:32:26.991Z,197.08
2024-03-13T03:33:26.812Z,198.63
2024-03-13T03:34:27.080Z,198.22
2024-03-13T03:35:27.250Z,196.00
2024-03-13T03:36:27.355Z,195.91
2024-03-13T03:37:27.560Z,196.36
2024-03-13T03:38:27.676Z,197.91
2024-03-13T03:39:27.725Z,198.80
2024-03-13T03:40:27.968Z,199.97
2024-03-13T03:41:27.954Z,198.14
2024-03-13T03:42:28.120Z,197.68
2024-03-13T03:43:28.342Z,197.80
2024-03-13T03:44:28.264Z,194.64
2024-03-13T03:45:28.440Z,191.65
2024-03-13T03:46:28.590Z,192.62
2024-03-13T03:47:28.710Z,190.23
2024-03-13T03:48:28.961Z,189.36
2024-03-13T03:49:28.920Z,188.47
2024-03-13T03:50:28.989Z,185.64
2024-03-13T03:51:29.091Z,184.77
2024-03-13T03:52:29.216Z,180.45
2024-03-13T03:53:29.359Z,182.80
2024-03-13T03:54:29.481Z,180.31
2024-03-13T03:55:29.632Z,181.27
2024-03-13T03:56:30.454Z,182.04
2024-03-13T03:57:29.910Z,182.44
2024-03-13T03:58:30.126Z,184.90
2024-03-13T03:59:30.166Z,185.19
2024-03-13T04:00:30.303Z,183.05
2024-03-13T04:01:30.516Z,183.71
2024-03-13T04:02:30.547Z,182.80
2024-03-13T04:03:30.609Z,183.01
2024-03-13T04:04:30.815Z,182.75
2024-03-13T04:05:30.873Z,183.01
2024-03-13T04:06:30.975Z,183.32
2024-03-13T04:07:31.144Z,182.90
2024-03-13T04:08:31.214Z,182.59
2024-03-13T04:09:31.339Z,184.25
2024-03-13T04:10:31.513Z,183.46
2024-03-13T04:11:31.561Z,184.25
2024-03-13T04:12:31.668Z,183.53
2024-03-13T04:13:32.910Z,183.80
2024-03-13T04:14:31.894Z,185.38
2024-03-13T04:15:32.071Z,185.93
2024-03-13T04:16:32.219Z,187.02
2024-03-13T04:17:32.269Z,188.05
2024-03-13T04:18:32.407Z,189.98
2024-03-13T04:19:32.520Z,188.88
2024-03-13T04:20:32.678Z,191.29
2024-03-13T04:21:32.738Z,189.15
2024-03-13T04:22:32.915Z,191.29
2024-03-13T04:23:32.956Z,190.86
2024-03-13T04:24:33.055Z,192.26
2024-03-13T04:25:33.254Z,193.44
2024-03-13T04:26:33.394Z,194.71
2024-03-13T04:27:33.546Z,195.19
2024-03-13T04:28:33.702Z,196.08
2024-03-13T04:29:39.076Z,196.73
2024-03-13T04:30:35.000Z,196.85
2024-03-13T04:31:34.048Z,197.11
2024-03-13T04:32:34.099Z,197.49
2024-03-13T04:33:34.198Z,197.35
2024-03-13T04:34:34.364Z,198.31
2024-03-13T04:35:34.423Z,199.25
2024-03-13T04:36:34.472Z,197.14
2024-03-13T04:37:34.622Z,197.12
2024-03-13T04:38:34.738Z,197.19
2024-03-13T04:39:34.815Z,197.18
2024-03-13T04:40:34.984Z,196.08
2024-03-13T04:41:34.976Z,196.57
2024-03-13T04:42:35.089Z,197.91
2024-03-13T04:43:35.224Z,199.34
2024-03-13T04:44:35.323Z,196.52
2024-03-13T04:45:35.422Z,199.02
2024-03-13T04:46:35.588Z,198.39
2024-03-13T04:47:39.549Z,199.29
2024-03-13T04:48:36.770Z,199.41
2024-03-13T04:49:35.924Z,199.48
2024-03-13T04:50:35.976Z,199.68
2024-03-13T04:51:36.106Z,199.81
2024-03-13T04:52:36.137Z,199.71
2024-03-13T04:53:36.282Z,198.71
2024-03-13T04:54:36.370Z,195.95
2024-03-13T04:55:36.510Z,194.94
2024-03-13T04:56:36.594Z,195.89
2024-03-13T04:57:36.656Z,194.62
2024-03-13T04:58:36.757Z,193.16
2024-03-13T04:59:36.872Z,192.18
2024-03-13T05:00:36.997Z,188.04
2024-03-13T05:01:37.151Z,179.46
2024-03-13T05:02:40.419Z,173.56
2024-03-13T05:03:48.829Z,50.00
2024-03-13T05:04:48.773Z,50.00
2024-03-13T05:05:48.816Z,50.00
2024-03-13T05:06:48.845Z,50.00
2024-03-13T05:07:48.807Z,50.00
2024-03-13T05:08:48.794Z,50.00
2024-03-13T05:09:48.856Z,50.00
2024-03-13T05:10:48.906Z,51.40
2024-03-13T05:11:48.784Z,50.00
2024-03-13T05:12:48.825Z,52.17
2024-03-13T05:13:48.846Z,50.70
2024-03-13T05:14:48.813Z,53.80
2024-03-13T05:15:49.378Z,55.95
2024-03-13T05:16:48.823Z,56.44
2024-03-13T05:17:48.988Z,59.89
2024-03-13T05:18:48.882Z,61.57
2024-03-13T05:19:48.856Z,61.75
2024-03-13T05:20:48.834Z,66.38
2024-03-13T05:21:48.923Z,63.46
2024-03-13T05:22:48.961Z,65.73
2024-03-13T05:23:48.860Z,63.76
2024-03-13T05:24:48.900Z,65.84
2024-03-13T05:25:51.800Z,66.15
2024-03-13T05:26:48.883Z,66.28
2024-03-13T05:27:48.918Z,66.53
2024-03-13T05:28:48.898Z,67.05
2024-03-13T05:29:48.919Z,68.92
2024-03-13T05:30:48.966Z,66.92
2024-03-13T05:31:48.961Z,66.39
2024-03-13T05:32:48.990Z,69.21
2024-03-13T05:33:48.916Z,71.10
2024-03-13T05:34:48.981Z,67.92
2024-03-13T05:35:48.952Z,68.22
2024-03-13T05:36:48.993Z,66.70
2024-03-13T05:37:48.963Z,67.25
2024-03-13T05:38:48.979Z,62.76
2024-03-13T05:39:49.032Z,58.30
2024-03-13T05:40:49.006Z,58.26
2024-03-13T05:41:49.002Z,58.93
2024-03-13T05:42:49.026Z,56.05
2024-03-13T05:43:49.001Z,58.57
2024-03-13T05:44:49.009Z,55.74
2024-03-13T05:45:49.041Z,51.45
2024-03-13T05:46:49.027Z,51.33
2024-03-13T05:47:49.058Z,53.42
2024-03-13T05:48:49.110Z,50.73
2024-03-13T05:49:49.067Z,51.34
2024-03-13T05:50:49.050Z,54.40
2024-03-13T05:51:49.342Z,53.41
2024-03-13T05:52:49.068Z,51.38
2024-03-13T05:53:49.066Z,52.63
2024-03-13T05:54:49.076Z,50.80
2024-03-13T05:55:49.091Z,51.62
2024-03-13T05:56:49.048Z,52.99
2024-03-13T05:57:49.137Z,50.80
2024-03-13T05:58:49.054Z,50.00
2024-03-13T05:59:49.076Z,50.15
2024-03-13T06:02:18.100Z,51.74
2024-03-13T06:02:56.190Z,53.65
2024-03-13T06:03:55.360Z,61.40
2024-03-13T06:04:55.362Z,69.53
2024-03-13T06:05:55.348Z,75.86
2024-03-13T06:06:55.442Z,77.02
2024-03-13T06:07:55.375Z,67.32
2024-03-13T06:08:55.362Z,58.47
2024-03-13T06:09:55.388Z,50.67
2024-03-13T06:10:55.571Z,49.91
2024-03-13T06:11:55.347Z,50.36
2024-03-13T06:12:55.385Z,49.50
2024-03-13T06:13:55.410Z,50.67
2024-03-13T06:14:55.462Z,49.34
2024-03-13T06:15:55.627Z,51.11
2024-03-13T06:16:55.627Z,52.38
2024-03-13T06:17:55.657Z,50.62
2024-03-13T06:18:55.721Z,53.68
2024-03-13T06:19:55.710Z,51.37
2024-03-13T06:20:55.809Z,53.33
2024-03-13T06:21:55.871Z,55.79
2024-03-13T06:22:55.876Z,57.48
2024-03-13T06:23:55.988Z,51.00
2024-03-13T06:24:56.110Z,52.28
2024-03-13T06:25:56.102Z,55.30
2024-03-13T06:26:56.156Z,51.81
2024-03-13T06:27:56.185Z,59.99
2024-03-13T06:28:56.228Z,61.89
2024-03-13T06:29:56.310Z,58.78
2024-03-13T06:30:56.645Z,53.02
2024-03-13T06:31:56.436Z,55.65
2024-03-13T06:32:57.089Z,51.07
2024-03-13T06:33:56.905Z,49.87
2024-03-13T06:34:56.572Z,51.43
2024-03-13T06:35:57.065Z,51.99
2024-03-13T06:36:56.783Z,54.60
2024-03-13T06:37:56.754Z,57.14
2024-03-13T06:38:56.817Z,57.35
2024-03-13T06:39:57.015Z,51.83
2024-03-13T06:40:57.026Z,51.88
2024-03-13T06:41:56.982Z,50.04
2024-03-13T06:42:57.027Z,53.10
2024-03-13T06:43:57.050Z,48.62
2024-03-13T06:44:57.056Z,52.90
2024-03-13T06:47:27.725Z,54.84
2024-03-13T06:48:02.491Z,56.46
2024-03-13T06:49:02.347Z,64.01
2024-03-13T06:50:02.425Z,73.08
2024-03-13T06:51:02.637Z,78.59
2024-03-13T06:52:02.472Z,85.38
2024-03-13T06:53:02.438Z,79.75
2024-03-13T06:54:02.345Z,71.00
2024-03-13T06:55:02.508Z,59.57
2024-03-13T06:56:02.678Z,51.00
2024-03-13T06:57:02.565Z,52.17
2024-03-13T06:58:03.162Z,51.01
2024-03-13T06:59:02.404Z,54.82
2024-03-13T07:00:02.412Z,59.72
2024-03-13T07:01:02.773Z,60.11
2024-03-13T07:02:02.533Z,54.15
2024-03-13T07:03:02.419Z,55.22
2024-03-13T07:04:02.440Z,59.69
2024-03-13T07:05:02.425Z,65.90
2024-03-13T07:06:02.427Z,57.02
2024-03-13T07:07:02.509Z,50.80
2024-03-13T07:08:02.437Z,50.00
2024-03-13T07:09:02.458Z,50.00
2024-03-13T07:10:02.498Z,50.00
2024-03-13T07:11:02.497Z,50.98
2024-03-13T07:12:02.568Z,52.50
2024-03-13T07:13:02.485Z,54.16
2024-03-13T07:14:02.578Z,50.23
2024-03-13T07:15:02.582Z,50.00
2024-03-13T07:16:02.677Z,52.83
2024-03-13T07:17:02.610Z,64.63
2024-03-13T07:18:04.210Z,64.37
2024-03-13T07:19:02.645Z,69.95
2024-03-13T07:20:02.638Z,70.63
2024-03-13T07:21:03.141Z,68.56
2024-03-13T07:22:03.464Z,71.31
2024-03-13T07:23:02.750Z,72.40
2024-03-13T07:24:02.751Z,67.06
2024-03-13T07:25:02.808Z,74.02
2024-03-13T07:26:03.172Z,62.74
2024-03-13T07:27:02.797Z,54.09
2024-03-13T07:28:02.930Z,50.00
2024-03-13T07:29:02.899Z,51.10
2024-03-13T07:30:02.997Z,52.02
2024-03-13T07:31:03.181Z,50.00
2024-03-13T07:32:03.074Z,50.92
2024-03-13T07:33:03.157Z,52.95
2024-03-13T07:34:03.241Z,51.23
2024-03-13T07:35:03.152Z,50.07
2024-03-13T07:36:03.649Z,50.52
2024-03-13T07:37:03.289Z,55.15
2024-03-13T07:38:03.356Z,57.55
2024-03-13T07:39:03.404Z,58.17
2024-03-13T07:40:05.198Z,58.76
2024-03-13T07:41:03.789Z,58.00
2024-03-13T07:42:03.497Z,56.12
2024-03-13T07:43:03.636Z,56.77
2024-03-13T07:44:03.596Z,64.15
2024-03-13T07:45:03.632Z,73.94
2024-03-13T07:46:04.199Z,83.40
2024-03-13T07:47:03.654Z,85.62
2024-03-13T07:48:03.765Z,83.10
2024-03-13T07:49:04.184Z,81.95
2024-03-13T07:50:03.705Z,80.58
2024-03-13T07:51:04.591Z,76.66
2024-03-13T07:52:04.054Z,71.63
2024-03-13T07:53:03.824Z,67.20
2024-03-13T07:54:03.902Z,60.21
2024-03-13T07:55:03.964Z,60.56
2024-03-13T07:56:04.210Z,57.64
2024-03-13T07:57:03.953Z,54.37
2024-03-13T07:58:04.095Z,54.72
2024-03-13T07:59:03.962Z,61.48
2024-03-13T08:00:03.942Z,65.44
2024-03-13T08:01:04.122Z,67.07
2024-03-13T08:02:04.149Z,51.69
2024-03-13T08:03:04.064Z,50.96
2024-03-13T08:04:04.126Z,51.40
2024-03-13T08:05:04.046Z,55.42
2024-03-13T09:06:02.600Z,51.26
2024-03-13T09:07:01.951Z,65.34
2024-03-13T09:08:02.002Z,102.56
2024-03-13T09:09:01.783Z,150.76
2024-03-13T09:10:01.688Z,205.72
2024-03-13T09:11:01.721Z,254.42
2024-03-13T09:12:01.749Z,184.31
2024-03-13T09:13:01.563Z,169.64
2024-03-13T09:14:01.550Z,153.38
2024-03-13T09:15:02.231Z,144.86
2024-03-13T09:16:01.433Z,139.46
2024-03-13T09:17:01.377Z,139.83
2024-03-13T09:18:01.484Z,130.80
2024-03-13T09:19:01.391Z,125.30
2024-03-13T09:20:01.193Z,116.82
2024-03-13T09:21:01.283Z,111.36
2024-03-13T09:22:02.024Z,102.30
2024-03-13T09:23:01.647Z,95.28
2024-03-13T09:24:01.044Z,97.20
2024-03-13T09:25:00.943Z,89.77
2024-03-13T09:26:00.918Z,87.88
2024-03-13T09:27:01.819Z,86.68
2024-03-13T09:28:00.823Z,87.24
2024-03-13T09:29:00.801Z,90.48
2024-03-13T09:30:00.903Z,95.50
2024-03-13T09:31:01.604Z,86.03
2024-03-13T09:32:01.151Z,77.79
2024-03-13T09:33:00.975Z,81.75
2024-03-13T09:34:00.865Z,70.90
2024-03-13T09:35:00.635Z,70.38
2024-03-13T09:36:00.721Z,66.50
2024-03-13T09:37:01.150Z,60.46
2024-03-13T09:38:00.590Z,54.97
2024-03-13T09:39:00.911Z,55.31
2024-03-13T09:40:00.593Z,56.92
2024-03-13T09:41:00.571Z,55.33
2024-03-13T09:42:00.713Z,54.56
2024-03-13T09:43:00.604Z,54.73
2024-03-13T09:44:00.690Z,53.71
2024-03-13T09:45:00.736Z,53.74
2024-03-13T09:46:00.482Z,55.25
2024-03-13T09:47:00.683Z,56.90
2024-03-13T09:48:00.545Z,60.56
2024-03-13T09:49:00.582Z,65.66
2024-03-13T09:50:00.416Z,61.05
2024-03-13T09:52:00.856Z,64.09
2024-03-13T09:53:00.208Z,56.86
2024-03-13T09:54:00.157Z,62.95
2024-03-13T09:54:59.979Z,61.60
2024-03-13T09:55:59.897Z,58.71
2024-03-13T09:57:00.368Z,54.40
2024-03-13T09:57:59.800Z,63.16
2024-03-13T09:58:59.711Z,53.85
2024-03-13T09:59:59.671Z,50.00
2024-03-13T10:00:59.611Z,49.99
2024-03-13T10:01:59.622Z,56.08
2024-03-13T10:02:59.472Z,62.03
2024-03-13T10:03:59.374Z,63.80
2024-03-13T10:04:59.264Z,63.71
2024-03-13T10:05:59.203Z,64.96
2024-03-13T10:06:59.449Z,74.72
2024-03-13T10:07:59.460Z,72.12
2024-03-13T10:08:59.002Z,68.49
2024-03-13T10:09:58.858Z,65.17
2024-03-13T10:10:59.073Z,62.67
2024-03-13T10:11:58.792Z,62.71
2024-03-13T10:12:58.737Z,56.86
2024-03-13T10:13:58.581Z,55.70
2024-03-13T10:14:58.513Z,59.19
2024-03-13T10:15:58.394Z,62.77
2024-03-13T10:17:00.652Z,61.22
2024-03-13T10:17:58.709Z,58.61
2024-03-13T10:18:58.184Z,53.80
2024-03-13T10:19:58.013Z,54.12
2024-03-13T10:20:57.938Z,52.57
2024-03-13T10:21:57.845Z,51.77
2024-03-13T10:22:57.652Z,60.66
2024-03-13T10:23:57.729Z,72.57
2024-03-13T10:24:57.530Z,67.96
2024-03-13T10:25:57.369Z,71.35
2024-03-13T10:26:57.257Z,69.14
2024-03-13T10:27:57.689Z,71.03
2024-03-13T10:28:57.076Z,68.45
2024-03-13T10:29:57.009Z,70.67
2024-03-13T10:30:56.945Z,78.57
2024-03-13T10:31:56.823Z,70.26
2024-03-13T10:32:56.845Z,73.17
2024-03-13T10:33:56.743Z,68.72
2024-03-13T10:34:59.112Z,65.46
2024-03-13T10:35:56.309Z,78.40
2024-03-13T10:37:05.116Z,75.19
2024-03-13T10:37:57.142Z,75.52
2024-03-13T10:38:56.038Z,76.37
2024-03-13T10:39:55.792Z,78.98
2024-03-13T10:40:56.683Z,76.92
2024-03-13T10:41:55.609Z,84.74
2024-03-13T10:42:55.668Z,77.90
2024-03-13T10:43:55.206Z,77.77
2024-03-13T10:44:55.197Z,76.89
2024-03-13T10:45:55.166Z,84.71
2024-03-13T10:46:55.624Z,84.71
2024-03-13T10:47:55.241Z,72.27
2024-03-13T10:48:54.693Z,70.94
2024-03-13T10:49:54.929Z,55.82
2024-03-13T10:50:55.539Z,50.39
2024-03-13T10:51:54.231Z,50.00
2024-03-13T10:52:54.682Z,54.36
2024-03-13T10:53:54.218Z,57.00
2024-03-13T10:54:54.080Z,66.56
2024-03-13T10:55:54.050Z,71.38
2024-03-13T10:56:54.006Z,79.47
2024-03-13T10:57:53.863Z,94.96
2024-03-13T10:58:53.791Z,90.62
2024-03-13T10:59:53.754Z,95.06
2024-03-13T11:00:53.698Z,91.59
2024-03-13T11:01:53.727Z,86.82
2024-03-13T11:02:53.745Z,96.42
2024-03-13T11:03:53.512Z,94.01
2024-03-13T11:04:53.397Z,88.76
2024-03-13T11:05:53.389Z,83.99
2024-03-13T11:06:53.360Z,81.24
2024-03-13T11:07:53.677Z,87.91
2024-03-13T11:08:54.153Z,84.28
2024-03-13T11:09:53.225Z,80.04
2024-03-13T11:11:06.300Z,70.33
2024-03-13T11:11:54.823Z,70.45
2024-03-13T11:12:53.387Z,69.77
2024-03-13T11:13:52.884Z,72.92
2024-03-13T11:14:52.750Z,72.88
2024-03-13T11:15:52.620Z,70.36
2024-03-13T11:16:52.530Z,62.79
2024-03-13T11:17:52.859Z,64.12
2024-03-13T11:18:52.562Z,50.00
2024-03-13T11:19:52.278Z,49.10
2024-03-13T11:20:52.180Z,50.00
2024-03-13T11:21:52.032Z,50.90
2024-03-13T11:22:52.180Z,50.00
2024-03-13T11:23:51.920Z,53.54
2024-03-13T11:24:51.877Z,51.16
2024-03-13T11:25:51.741Z,50.51
2024-03-13T11:26:51.549Z,52.83
2024-03-13T11:27:51.523Z,55.94
2024-03-13T11:28:51.794Z,50.00
2024-03-13T11:29:51.375Z,50.99
2024-03-13T11:30:51.147Z,52.77
2024-03-13T11:31:51.104Z,55.77
2024-03-13T11:32:51.026Z,62.89
2024-03-13T11:33:51.501Z,66.41
2024-03-13T11:34:50.772Z,56.33
2024-03-13T11:35:50.660Z,55.08
2024-03-13T11:36:50.590Z,54.29
2024-03-13T11:37:50.371Z,54.73
2024-03-13T11:38:50.755Z,53.12
2024-03-13T11:39:50.153Z,66.96
2024-03-13T11:40:50.165Z,75.76
2024-03-13T11:41:50.076Z,85.10
2024-03-13T11:42:49.895Z,88.55
2024-03-13T11:43:50.231Z,81.92
2024-03-13T11:44:49.583Z,88.06
2024-03-13T11:45:49.465Z,87.29
2024-03-13T11:46:49.432Z,77.42
2024-03-13T11:47:49.610Z,65.75
2024-03-13T11:48:49.381Z,62.97
2024-03-13T11:49:49.147Z,66.85
2024-03-13T11:50:49.010Z,69.55
2024-03-13T11:51:48.808Z,72.23
2024-03-13T11:52:48.751Z,66.26
2024-03-13T11:53:48.783Z,66.49
2024-03-13T11:54:48.588Z,64.94
2024-03-13T11:55:48.405Z,60.30
2024-03-13T11:56:48.339Z,59.72
2024-03-13T11:57:48.170Z,68.49
2024-03-13T11:58:48.251Z,54.96
2024-03-13T11:59:48.278Z,50.66
2024-03-13T12:00:47.835Z,54.99
2024-03-13T12:01:47.685Z,72.57
2024-03-13T12:02:47.680Z,72.62
2024-03-13T12:03:47.506Z,77.69
2024-03-13T12:04:47.676Z,78.23
2024-03-13T12:05:47.452Z,70.52
2024-03-13T12:06:48.589Z,68.57
2024-03-13T12:07:46.987Z,67.83
2024-03-13T12:08:47.240Z,63.23
2024-03-13T12:09:46.756Z,66.06
2024-03-13T12:10:46.660Z,61.67
2024-03-13T12:11:46.513Z,65.57
2024-03-13T12:12:46.374Z,64.26
2024-03-13T12:13:46.676Z,66.25
2024-03-13T12:14:46.562Z,61.98
2024-03-13T12:15:45.902Z,62.00
2024-03-13T12:16:45.842Z,56.42
2024-03-13T12:17:45.777Z,65.93
2024-03-13T12:18:45.790Z,70.66
2024-03-13T12:19:45.521Z,68.86
2024-03-13T12:20:45.468Z,66.40
2024-03-13T12:21:45.291Z,76.72
2024-03-13T12:22:45.142Z,83.59
2024-03-13T12:23:45.227Z,82.85
2024-03-13T12:24:44.868Z,77.34
2024-03-13T12:25:44.817Z,73.68
2024-03-13T12:26:44.692Z,72.27
2024-03-13T12:27:44.526Z,72.11
2024-03-13T12:28:44.726Z,82.45
2024-03-13T12:29:44.224Z,91.07
2024-03-13T12:30:44.065Z,72.30
2024-03-13T12:31:44.014Z,70.57
2024-03-13T12:32:43.885Z,65.72
2024-03-13T12:33:44.302Z,68.55
2024-03-13T12:34:43.510Z,66.50
2024-03-13T12:35:43.549Z,64.88
2024-03-13T12:36:43.447Z,64.38
2024-03-13T12:37:43.203Z,76.27
2024-03-13T12:38:43.111Z,73.01
2024-03-13T12:39:42.949Z,82.55
2024-03-13T12:40:42.936Z,67.46
2024-03-13T12:41:42.755Z,61.73
2024-03-13T12:42:42.578Z,80.31
2024-03-13T12:43:45.784Z,75.98
2024-03-13T12:44:42.296Z,74.58
2024-03-13T12:45:42.129Z,79.27
2024-03-13T12:46:41.957Z,74.98
2024-03-13T12:47:41.873Z,70.50
2024-03-13T12:48:41.705Z,67.93
2024-03-13T12:49:41.442Z,66.34
2024-03-13T12:50:41.284Z,73.20
2024-03-13T12:51:41.152Z,69.38
2024-03-13T12:52:40.891Z,64.15
2024-03-13T12:53:41.290Z,73.44
2024-03-13T12:54:40.543Z,72.61
2024-03-13T12:55:40.346Z,81.72
2024-03-13T12:56:40.208Z,82.14
2024-03-13T12:57:40.076Z,80.30
2024-03-13T12:58:39.961Z,80.07
2024-03-13T12:59:40.709Z,74.18
2024-03-13T13:00:39.557Z,82.84
2024-03-13T13:01:39.493Z,86.03
2024-03-13T13:02:39.277Z,78.39
2024-03-13T13:03:39.140Z,76.23
2024-03-13T13:04:38.976Z,79.43
2024-03-13T13:05:40.826Z,83.71
2024-03-13T13:06:38.717Z,76.75
2024-03-13T13:07:38.578Z,83.33
2024-03-13T13:08:38.499Z,88.36
2024-03-13T13:09:38.216Z,81.37
2024-03-13T13:10:38.054Z,78.83
2024-03-13T13:11:37.996Z,65.57
2024-03-13T13:12:37.879Z,65.08
2024-03-13T13:13:37.665Z,71.98
2024-03-13T13:14:37.477Z,70.30
2024-03-13T13:15:37.390Z,65.81
2024-03-13T13:16:37.181Z,68.84
2024-03-13T13:17:37.069Z,65.18
2024-03-13T13:18:37.083Z,58.52
2024-03-13T13:19:36.718Z,60.49
2024-03-13T13:20:36.572Z,61.80
2024-03-13T13:21:36.459Z,61.06
2024-03-13T13:22:36.336Z,66.02
2024-03-13T13:23:36.237Z,61.19
2024-03-13T13:24:35.982Z,66.23
2024-03-13T13:25:35.886Z,74.05
2024-03-13T13:26:35.780Z,78.31
2024-03-13T13:27:35.546Z,64.12
2024-03-13T13:28:35.589Z,58.62
2024-03-13T13:29:35.263Z,60.01
2024-03-13T13:30:35.125Z,67.78
2024-03-13T13:31:34.956Z,63.97
2024-03-13T13:32:34.842Z,61.97
2024-03-13T13:33:34.883Z,64.99
2024-03-13T13:34:34.408Z,72.13
2024-03-13T13:35:34.289Z,76.45
2024-03-13T13:36:34.099Z,83.82
2024-03-13T13:37:33.965Z,82.31
2024-03-13T13:39:09.524Z,50.00
2024-03-13T13:40:09.367Z,50.00
2024-03-13T13:41:09.543Z,50.00
2024-03-13T13:42:09.387Z,50.00
2024-03-13T13:43:09.348Z,50.00
2024-03-13T13:44:09.359Z,54.83
2024-03-13T13:45:09.502Z,50.17
2024-03-13T13:46:09.376Z,53.70
2024-03-13T13:47:09.447Z,50.00